createdAt,value
2019-04-20T00:00:35.435Z,53.47
2019-04-20T00:01:11.452Z,52.89
2019-04-20T00:01:50.470Z,52.7
2019-04-20T00:02:29.684Z,52.51
2019-04-20T00:03:10.062Z,52.89
2019-04-20T00:03:51.765Z,52.89
2019-04-20T00:04:34.163Z,53.08
2019-04-20T00:05:11.280Z,52.89
2019-04-20T00:05:52.979Z,53.37
2019-04-20T00:06:39.733Z,53.56
2019-04-20T00:07:12.505Z,53.37
2019-04-20T00:07:54.069Z,53.56
2019-04-20T00:08:36.447Z,52.99
2019-04-20T00:09:19.264Z,53.18
2019-04-20T00:10:01.043Z,53.44
2019-04-20T00:10:45.160Z,53.75
2019-04-20T00:11:20.673Z,54.43
2019-04-20T00:12:03.707Z,54.68
2019-04-20T00:12:50.963Z,54.88
2019-04-20T00:13:23.892Z,55.29
2019-04-20T00:14:03.588Z,55.1
2019-04-20T00:14:38.794Z,55.16
2019-04-20T00:15:17.523Z,55.35
2019-04-20T00:15:57.850Z,55.74
2019-04-20T00:16:37.981Z,55.74
2019-04-20T00:17:18.372Z,55.54
2019-04-20T00:18:02.127Z,55.74
2019-04-20T00:18:44.808Z,55.93
2019-04-20T00:19:25.188Z,55.64
2019-04-20T00:20:04.596Z,55.74
2019-04-20T00:20:42.110Z,55.26
2019-04-20T00:21:20.895Z,55.26
2019-04-20T00:22:05.198Z,55.16
2019-04-20T00:22:47.025Z,55.45
2019-04-20T00:23:29.186Z,54.97
2019-04-20T00:24:08.806Z,54.68
2019-04-20T00:24:43.893Z,54.49
2019-04-20T00:25:24.135Z,54.52
2019-04-20T00:26:13.051Z,54.11
2019-04-20T00:27:08.328Z,54.88
2019-04-20T00:27:42.581Z,55
2019-04-20T00:28:23.890Z,55.35
2019-04-20T00:28:59.999Z,55.35
2019-04-20T00:29:44.673Z,55.74
2019-04-20T00:30:28.116Z,56.21
2019-04-20T00:31:05.344Z,56.31
2019-04-20T00:31:42.700Z,56.6
2019-04-20T00:32:17.140Z,56.21
2019-04-20T00:32:58.398Z,56.98
2019-04-20T00:33:42.117Z,56.5
2019-04-20T00:34:15.444Z,57.55
2019-04-20T00:34:50.349Z,57.46
2019-04-20T00:35:29.423Z,57.46
2019-04-20T00:36:10.145Z,57.46
2019-04-20T00:36:50.159Z,58.22
2019-04-20T00:37:31.858Z,57.93
2019-04-20T00:38:11.912Z,57.9
2019-04-20T00:38:55.022Z,58
2019-04-20T00:39:32.040Z,58.1
2019-04-20T00:40:12.897Z,57.9
2019-04-20T00:40:58.221Z,58.38
2019-04-20T00:41:33.956Z,58.38
2019-04-20T00:42:15.934Z,58.95
2019-04-20T00:42:56.774Z,58.58
2019-04-20T00:43:36.982Z,58.76
2019-04-20T00:44:19.188Z,58.95
2019-04-20T00:45:02.776Z,58.48
2019-04-20T00:45:38.105Z,58.48
2019-04-20T00:46:24.857Z,58.38
2019-04-20T00:47:08.320Z,58.76
2019-04-20T00:47:47.605Z,58.58
2019-04-20T00:48:31.438Z,58.58
2019-04-20T00:49:04.689Z,59.24
2019-04-20T00:49:52.043Z,59.05
2019-04-20T00:50:34.019Z,59.05
2019-04-20T00:51:20.891Z,59.15
2019-04-20T00:51:57.195Z,59.44
2019-04-20T00:52:49.883Z,59.44
2019-04-20T00:53:09.976Z,59.81
2019-04-20T00:53:44.756Z,59.69
2019-04-20T00:54:22.132Z,60.17
2019-04-20T00:55:02.343Z,60.2
2019-04-20T00:55:42.210Z,60.27
2019-04-20T00:56:22.337Z,60.55
2019-04-20T00:57:13.117Z,60.07
2019-04-20T00:57:49.943Z,60.46
2019-04-20T00:58:28.720Z,60.01
2019-04-20T00:59:16.648Z,60.07
2019-04-20T01:00:04.484Z,59.91
2019-04-20T01:00:40.415Z,60.17
2019-04-20T01:01:24.526Z,59.59
2019-04-20T01:02:03.321Z,60.07
2019-04-20T01:02:35.950Z,59.98
2019-04-20T01:03:20.622Z,59.98
2019-04-20T01:04:05.399Z,59.98
2019-04-20T01:04:47.379Z,60.17
2019-04-20T01:05:22.572Z,60.36
2019-04-20T01:06:06.126Z,60.17
2019-04-20T01:06:40.473Z,60.27
2019-04-20T01:07:20.139Z,60.17
2019-04-20T01:07:53.441Z,60.55
2019-04-20T01:08:29.602Z,60.27
2019-04-20T01:09:09.935Z,60.84
2019-04-20T01:09:50.084Z,60.74
2019-04-20T01:10:38.161Z,60.74
2019-04-20T01:11:12.224Z,61.13
2019-04-20T01:11:51.622Z,61.98
2019-04-20T01:12:34.706Z,61.69
2019-04-20T01:13:16.763Z,61.79
2019-04-20T01:13:55.963Z,62.37
2019-04-20T01:14:40.468Z,62.37
2019-04-20T01:15:24.278Z,62.46
2019-04-20T01:15:58.667Z,62.65
2019-04-20T01:16:41.596Z,61.89
2019-04-20T01:17:14.383Z,62.43
2019-04-20T01:17:54.826Z,62.24
2019-04-20T01:18:35.191Z,62.15
2019-04-20T01:19:15.775Z,62.71
2019-04-20T01:19:55.978Z,62.34
2019-04-20T01:20:36.489Z,62.43
2019-04-20T01:21:21.472Z,62.24
2019-04-20T01:22:02.224Z,62.24
2019-04-20T01:22:44.226Z,62.52
2019-04-20T01:23:21.226Z,62.62
2019-04-20T01:24:02.785Z,62.71
2019-04-20T01:24:41.902Z,62.52
2019-04-20T01:25:26.890Z,62.71
2019-04-20T01:26:05.127Z,62.34
2019-04-20T01:26:43.286Z,62.91
2019-04-20T01:27:31.987Z,62.71
2019-04-20T01:28:11.514Z,62.81
2019-04-20T01:28:53.987Z,62.81
2019-04-20T01:29:30.097Z,62.62
2019-04-20T01:30:09.858Z,62.91
2019-04-20T01:30:51.506Z,63.29
2019-04-20T01:31:31.936Z,63.1
2019-04-20T01:32:14.882Z,63.48
2019-04-20T01:32:54.920Z,63.39
2019-04-20T01:33:36.354Z,63.2
2019-04-20T01:34:16.133Z,63.2
2019-04-20T01:34:54.994Z,63.76
2019-04-20T01:35:43.765Z,63.86
2019-04-20T01:36:25.254Z,63.76
2019-04-20T01:37:04.209Z,63.86
2019-04-20T01:37:38.268Z,64.53
2019-04-20T01:38:25.915Z,64.34
2019-04-20T01:39:02.583Z,64.43
2019-04-20T01:39:35.218Z,64.62
2019-04-20T01:40:09.861Z,64.81
2019-04-20T01:40:48.817Z,64.78
2019-04-20T01:41:30.398Z,64.91
2019-04-20T01:42:10.832Z,64.72
2019-04-20T01:42:51.138Z,64.62
2019-04-20T01:43:31.151Z,64.78
2019-04-20T01:44:11.169Z,64.78
2019-04-20T01:44:53.470Z,64.72
2019-04-20T01:45:36.010Z,64.88
2019-04-20T01:46:16.926Z,65.2
2019-04-20T01:46:56.814Z,65.45
2019-04-20T01:47:39.626Z,65.36
2019-04-20T01:48:20.223Z,65.36
2019-04-20T01:48:54.806Z,65.07
2019-04-20T01:49:36.596Z,65.55
2019-04-20T01:50:20.883Z,65.74
2019-04-20T01:51:03.656Z,65.74
2019-04-20T01:51:46.825Z,66.02
2019-04-20T01:52:22.874Z,66.02
2019-04-20T01:53:05.465Z,66.02
2019-04-20T01:53:50.181Z,66.02
2019-04-20T01:54:31.002Z,66.41
2019-04-20T01:55:15.570Z,66.31
2019-04-20T01:55:50.254Z,66.02
2019-04-20T01:56:31.047Z,66.22
2019-04-20T01:57:06.870Z,66.5
2019-04-20T01:57:57.105Z,66.5
2019-04-20T01:58:51.922Z,66.5
2019-04-20T01:59:15.661Z,66.69
2019-04-20T01:59:51.171Z,66.69
2019-04-20T02:00:25.191Z,66.78
2019-04-20T02:01:01.784Z,66.69
2019-04-20T02:01:42.743Z,66.88
2019-04-20T02:02:24.103Z,66.69
2019-04-20T02:03:04.842Z,67.36
2019-04-20T02:03:46.452Z,67.17
2019-04-20T02:04:27.797Z,67.27
2019-04-20T02:05:08.644Z,67.17
2019-04-20T02:05:51.158Z,67.36
2019-04-20T02:06:26.523Z,67.74
2019-04-20T02:07:06.431Z,67.17
2019-04-20T02:07:48.648Z,66.78
2019-04-20T02:08:28.074Z,67.27
2019-04-20T02:09:11.810Z,66.78
2019-04-20T02:09:53.320Z,66.88
2019-04-20T02:10:31.768Z,66.98
2019-04-20T02:11:08.032Z,66.6
2019-04-20T02:11:50.367Z,66.69
2019-04-20T02:12:31.049Z,66.88
2019-04-20T02:13:09.338Z,66.88
2019-04-20T02:13:54.936Z,67.46
2019-04-20T02:14:35.487Z,66.78
2019-04-20T02:15:19.669Z,66.98
2019-04-20T02:15:54.368Z,66.78
2019-04-20T02:16:37.141Z,66.69
2019-04-20T02:17:21.189Z,66.78
2019-04-20T02:18:03.014Z,66.31
2019-04-20T02:18:42.006Z,66.31
2019-04-20T02:19:26.193Z,66.5
2019-04-20T02:20:09.406Z,66.02
2019-04-20T02:20:48.131Z,66.22
2019-04-20T02:21:27.286Z,66.41
2019-04-20T02:22:06.074Z,66.98
2019-04-20T02:22:51.431Z,66.78
2019-04-20T02:23:24.784Z,66.12
2019-04-20T02:23:59.275Z,66.02
2019-04-20T02:24:34.557Z,66.31
2019-04-20T02:25:16.220Z,66.88
2019-04-20T02:25:56.590Z,66.69
2019-04-20T02:26:36.709Z,66.98
2019-04-20T02:27:19.597Z,67.36
2019-04-20T02:28:14.448Z,67.27
2019-04-20T02:29:00.361Z,67.07
2019-04-20T02:29:38.826Z,67.65
2019-04-20T02:30:29.626Z,67.55
2019-04-20T02:31:12.972Z,67.65
2019-04-20T02:33:16.403Z,67.17
2019-04-20T02:33:55.438Z,67.9
2019-04-20T02:34:47.488Z,67.52
2019-04-20T02:35:07.010Z,67.99
2019-04-20T02:36:40.024Z,68.18
2019-04-20T02:37:13.298Z,68.28
2019-04-20T02:38:48.573Z,68.57
2019-04-20T02:39:28.534Z,68.76
2019-04-20T02:39:59.681Z,67.9
2019-04-20T02:41:17.249Z,68.66
2019-04-20T02:42:44.408Z,68.76
2019-04-20T02:43:14.537Z,68.57
2019-04-20T02:44:05.740Z,68.95
2019-04-20T02:44:40.210Z,68.95
2019-04-20T02:45:23.718Z,69.14
2019-04-20T02:45:57.178Z,68.66
2019-04-20T02:46:40.611Z,68.85
2019-04-20T02:47:20.738Z,68.66
2019-04-20T02:48:00.667Z,68.28
2019-04-20T02:48:39.155Z,68.18
2019-04-20T02:49:56.262Z,68.95
2019-04-20T02:50:42.937Z,69.43
2019-04-20T02:51:21.871Z,69.23
2019-04-20T02:52:02.253Z,69.04
2019-04-20T02:53:40.393Z,69.71
2019-04-20T02:54:33.819Z,68.85
2019-04-20T02:55:22.325Z,69.52
2019-04-20T02:56:03.641Z,69.58
2019-04-20T02:56:47.363Z,69.14
2019-04-20T02:58:06.563Z,69.39
2019-04-20T02:58:49.733Z,69.52
2019-04-20T03:00:37.847Z,70.06
2019-04-20T03:01:14.533Z,69.77
2019-04-20T03:01:54.557Z,70.53
2019-04-20T03:02:31.191Z,70.34
2019-04-20T03:03:09.844Z,70.47
2019-04-20T03:03:44.860Z,70.09
2019-04-20T03:04:28.843Z,69.52
2019-04-20T03:05:12.060Z,69.04
2019-04-20T03:05:49.175Z,69.04
2019-04-20T03:06:30.106Z,69.23
2019-04-20T03:07:14.759Z,69.23
2019-04-20T03:07:56.962Z,69.62
2019-04-20T03:08:35.426Z,69.62
2019-04-20T03:09:19.677Z,69.81
2019-04-20T03:10:00.602Z,69.52
2019-04-20T03:10:45.953Z,69.52
2019-04-20T03:11:29.196Z,69.81
2019-04-20T03:12:42.613Z,69.52
2019-04-20T03:13:23.907Z,69.62
2019-04-20T03:14:01.991Z,69.62
2019-04-20T03:14:38.291Z,69.81
2019-04-20T03:15:25.024Z,68.85
2019-04-20T03:16:03.294Z,69.81
2019-04-20T03:16:43.507Z,69.33
2019-04-20T03:17:26.708Z,69.43
2019-04-20T03:18:08.676Z,69.71
2019-04-20T03:18:44.180Z,69.33
2019-04-20T03:19:19.654Z,69.04
2019-04-20T03:19:55.446Z,69.71
2019-04-20T03:20:51.755Z,69.81
2019-04-20T03:21:31.265Z,70.09
2019-04-20T03:23:10.074Z,69.14
2019-04-20T03:23:35.141Z,68.76
2019-04-20T03:24:18.654Z,68.66
2019-04-20T03:24:53.805Z,69.43
2019-04-20T03:25:29.472Z,69.04
2019-04-20T03:26:10.647Z,68.76
2019-04-20T03:26:46.048Z,68.57
2019-04-20T03:27:29.128Z,69.04
2019-04-20T03:28:13.755Z,68.95
2019-04-20T03:28:49.868Z,69.14
2019-04-20T03:29:32.877Z,69.33
2019-04-20T03:30:30.331Z,68.85
2019-04-20T03:31:28.801Z,68.85
2019-04-20T03:32:03.005Z,68.95
2019-04-20T03:32:38.034Z,69.33
2019-04-20T03:35:05.006Z,69.62
2019-04-20T03:35:40.205Z,69.71
2019-04-20T03:36:24.975Z,70.47
2019-04-20T03:37:06.688Z,70.28
2019-04-20T03:37:42.024Z,69.71
2019-04-20T03:38:14.079Z,70
2019-04-20T03:38:57.157Z,69.43
2019-04-20T03:39:35.833Z,69.58
2019-04-20T03:40:12.404Z,70.34
2019-04-20T03:40:50.559Z,70.72
2019-04-20T03:41:27.972Z,70.72
2019-04-20T03:42:00.871Z,70.28
2019-04-20T03:42:40.473Z,70.95
2019-04-20T03:43:22.149Z,71.33
2019-04-20T03:44:08.744Z,71.23
2019-04-20T03:44:48.819Z,70.67
2019-04-20T03:45:24.521Z,71.14
2019-04-20T03:46:07.465Z,71.04
2019-04-20T03:46:50.363Z,71.23
2019-04-20T03:47:33.685Z,71.33
2019-04-20T03:48:14.848Z,70.76
2019-04-20T03:48:58.427Z,70.47
2019-04-20T03:49:47.903Z,70.09
2019-04-20T03:50:30.623Z,69.62
2019-04-20T03:51:01.934Z,69.43
2019-04-20T03:51:46.613Z,69.9
2019-04-20T03:52:23.227Z,69.81
2019-04-20T03:53:08.234Z,70.19
2019-04-20T03:53:43.137Z,70.44
2019-04-20T03:54:19.530Z,70.53
2019-04-20T03:54:58.890Z,70.72
2019-04-20T03:55:44.310Z,71.11
2019-04-20T03:56:27.818Z,71.77
2019-04-20T03:57:12.145Z,71.77
2019-04-20T03:57:51.049Z,71.58
2019-04-20T03:58:28.382Z,71.48
2019-04-20T03:59:04.347Z,71.77
2019-04-20T03:59:48.321Z,71.77
2019-04-20T04:00:30.303Z,72.06
2019-04-20T04:01:09.219Z,72.63
2019-04-20T04:02:14.462Z,72.82
2019-04-20T04:02:45.250Z,72.92
2019-04-20T04:03:19.540Z,73.3
2019-04-20T04:03:58.282Z,73.39
2019-04-20T04:04:33.453Z,73.58
2019-04-20T04:05:08.364Z,73.39
2019-04-20T04:05:44.228Z,73.39
2019-04-20T04:06:24.044Z,73.58
2019-04-20T04:06:59.470Z,73.39
2019-04-20T04:07:40.205Z,73.21
2019-04-20T04:08:25.279Z,73.87
2019-04-20T04:09:09.845Z,74.06
2019-04-20T04:09:53.192Z,74.16
2019-04-20T04:10:30.079Z,74.06
2019-04-20T04:11:15.863Z,74.25
2019-04-20T04:11:51.035Z,73.68
2019-04-20T04:12:27.301Z,73.58
2019-04-20T04:12:58.872Z,73.68
2019-04-20T04:13:39.715Z,73.83
2019-04-20T04:14:19.797Z,74.02
2019-04-20T04:14:59.876Z,74.21
2019-04-20T04:15:44.136Z,74.79
2019-04-20T04:16:22.084Z,74.98
2019-04-20T04:17:02.900Z,74.6
2019-04-20T04:17:43.745Z,73.83
2019-04-20T04:18:27.693Z,74.44
2019-04-20T04:19:12.507Z,74.5
2019-04-20T04:19:51.048Z,74.4
2019-04-20T04:20:27.545Z,74.4
2019-04-20T04:21:08.198Z,74.63
2019-04-20T04:21:58.006Z,74.02
2019-04-20T04:22:39.667Z,74.63
2019-04-20T04:23:21.886Z,74.63
2019-04-20T04:24:02.086Z,73.49
2019-04-20T04:24:34.271Z,73.3
2019-04-20T04:25:15.789Z,73.21
2019-04-20T04:26:03.384Z,73.39
2019-04-20T04:26:42.574Z,73.49
2019-04-20T04:27:27.888Z,73.49
2019-04-20T04:28:01.180Z,73.3
2019-04-20T04:28:40.360Z,73.21
2019-04-20T05:06:21.843Z,65.74
2019-04-20T05:07:02.386Z,65.39
2019-04-20T05:07:43.326Z,64.91
2019-04-20T05:08:15.315Z,64.72
2019-04-20T05:08:52.957Z,63.86
2019-04-20T05:09:29.848Z,63.23
2019-04-20T05:10:10.249Z,64.09
2019-04-20T05:10:51.942Z,63.32
2019-04-20T05:11:31.997Z,62.37
2019-04-20T05:12:15.616Z,61.92
2019-04-20T05:12:53.169Z,61.35
2019-04-20T05:13:41.572Z,60.58
2019-04-20T05:14:19.212Z,60.1
2019-04-20T05:15:00.928Z,60.42
2019-04-20T05:15:48.271Z,60.04
2019-04-20T05:16:34.492Z,59.37
2019-04-20T05:17:06.993Z,58.51
2019-04-20T05:17:56.895Z,57.55
2019-04-20T05:18:41.119Z,57.48
2019-04-20T05:19:18.657Z,57.01
2019-04-20T05:19:52.482Z,56.62
2019-04-20T05:20:33.685Z,55.86
2019-04-20T05:21:14.248Z,55.79
2019-04-20T05:22:03.803Z,55.31
2019-04-20T05:22:36.503Z,54.83
2019-04-20T05:23:12.285Z,54.36
2019-04-20T05:23:50.759Z,53.62
2019-04-20T05:24:33.437Z,53.42
2019-04-20T05:25:17.053Z,52.95
2019-04-20T05:26:01.655Z,52.4
2019-04-20T05:26:42.223Z,52.4
2019-04-20T05:27:18.884Z,51.82
2019-04-20T05:28:00.505Z,51.15
2019-04-20T05:28:33.206Z,50.79
2019-04-20T05:29:10.429Z,50.03
2019-04-20T05:29:42.771Z,49.45
2019-04-20T05:30:22.402Z,49.38
2019-04-20T05:31:04.818Z,48.33
2019-04-20T05:31:48.983Z,48.52
2019-04-20T05:32:32.465Z,47.94
2019-04-20T05:33:08.877Z,47.87
2019-04-20T05:34:07.942Z,47.3
2019-04-20T05:34:44.669Z,47.1
2019-04-20T05:35:26.263Z,46.53
2019-04-20T05:36:05.471Z,46.36
2019-04-20T05:36:44.525Z,45.59
2019-04-20T05:37:32.877Z,45.78
2019-04-20T05:38:11.211Z,45.5
2019-04-20T05:38:46.776Z,45.11
2019-04-20T05:39:32.195Z,44.92
2019-04-20T05:40:10.304Z,44.17
2019-04-20T05:40:49.906Z,43.98
2019-04-20T05:41:26.408Z,44.37
2019-04-20T05:42:09.001Z,43.4
2019-04-20T05:42:48.079Z,43.43
2019-04-20T05:43:27.141Z,43.14
2019-04-20T05:44:04.521Z,43.33
2019-04-20T05:44:49.694Z,43.23
2019-04-20T05:45:24.357Z,43.14
2019-04-20T05:46:09.201Z,42.56
2019-04-20T05:46:53.071Z,42.56
2019-04-20T05:47:33.030Z,42.1
2019-04-20T05:48:07.349Z,42
2019-04-20T05:48:56.008Z,42.2
2019-04-20T05:49:29.538Z,42.2
2019-04-20T05:50:08.129Z,41.62
2019-04-20T05:50:52.680Z,41.35
2019-04-20T05:51:39.391Z,41.14
2019-04-20T05:52:28.755Z,41.06
2019-04-20T05:53:01.192Z,41.55
2019-04-20T05:53:38.301Z,41.06
2019-04-20T05:54:18.855Z,40.39
2019-04-20T05:54:56.022Z,40.3
2019-04-20T05:55:38.336Z,40.01
2019-04-20T05:56:14.080Z,40.31
2019-04-20T05:56:56.121Z,40.03
2019-04-20T05:57:41.449Z,39.91
2019-04-20T05:58:21.571Z,39.64
2019-04-20T05:58:59.290Z,40.12
2019-04-20T05:59:40.765Z,39.36
2019-04-20T06:00:18.824Z,39.36
2019-04-20T06:01:05.338Z,39.24
2019-04-20T06:01:45.094Z,39.54
2019-04-20T06:02:22.462Z,39.64
2019-04-20T06:02:57.613Z,39.26
2019-04-20T06:03:36.631Z,39.36
2019-04-20T06:04:20.883Z,39.36
2019-04-20T06:05:52.112Z,38.79
2019-04-20T06:06:27.075Z,38.22
2019-04-20T06:07:07.919Z,38.22
2019-04-20T06:07:41.871Z,38.31
2019-04-20T06:08:31.880Z,38.7
2019-04-20T06:09:09.691Z,38.51
2019-04-20T06:09:46.083Z,38.02
2019-04-20T06:10:31.515Z,37.95
2019-04-20T06:11:07.783Z,38.04
2019-04-20T06:12:02.543Z,37.85
2019-04-20T06:12:31.349Z,37.68
2019-04-20T06:13:06.152Z,37.29
2019-04-20T06:13:42.343Z,37.01
2019-04-20T06:14:17.071Z,36.73
2019-04-20T06:15:03.965Z,36.15
2019-04-20T06:15:45.990Z,36.25
2019-04-20T06:16:27.511Z,36.06
2019-04-20T06:17:08.656Z,35.86
2019-04-20T06:17:48.716Z,35.88
2019-04-20T06:18:23.962Z,35.78
2019-04-20T06:19:19.705Z,35.11
2019-04-20T06:19:51.702Z,35.4
2019-04-20T06:20:35.689Z,35.3
2019-04-20T06:21:19.404Z,35.21
2019-04-20T06:21:57.233Z,35.02
2019-04-20T06:22:34.635Z,35.11
2019-04-20T06:23:18.639Z,34.94
2019-04-20T06:23:56.259Z,34.84
2019-04-20T06:24:44.670Z,34.94
2019-04-20T06:25:30.032Z,34.74
2019-04-20T06:27:14.250Z,33.98
2019-04-20T06:27:56.754Z,34.08
2019-04-20T06:28:29.561Z,33.8
2019-04-20T06:29:13.595Z,33.5
2019-04-20T06:29:55.627Z,33.12
2019-04-20T06:30:30.543Z,32.92
2019-04-20T06:31:23.730Z,33.04
2019-04-20T06:32:02.172Z,32.75
2019-04-20T06:32:38.566Z,32.84
2019-04-20T06:33:30.449Z,33.04
2019-04-20T06:34:41.169Z,33.04
2019-04-20T06:35:30.146Z,32.36
2019-04-20T06:36:20.253Z,33.04
2019-04-20T06:36:46.026Z,32.86
2019-04-20T06:37:23.050Z,32.46
2019-04-20T06:38:09.781Z,32.18
2019-04-20T06:40:23.731Z,31.7
2019-04-20T06:40:53.808Z,31.99
2019-04-20T06:41:31.564Z,31.99
2019-04-20T06:42:09.698Z,31.7
2019-04-20T06:42:47.959Z,31.99
2019-04-20T06:43:31.382Z,31.81
2019-04-20T06:44:14.274Z,31.43
2019-04-20T06:44:42.511Z,31.62
2019-04-20T06:46:09.427Z,31.62
2019-04-20T06:46:58.316Z,31.89
2019-04-20T06:47:29.032Z,31.71
2019-04-20T06:48:13.381Z,31.99
2019-04-20T06:48:51.168Z,31.71
2019-04-20T06:49:32.711Z,31.71
2019-04-20T06:50:06.111Z,31.71
2019-04-20T06:50:48.144Z,31.62
2019-04-20T06:51:34.114Z,31.33
2019-04-20T06:52:19.920Z,31.43
2019-04-20T06:52:45.139Z,31.23
2019-04-20T06:53:36.226Z,31.13
2019-04-20T06:54:06.867Z,31.23
2019-04-20T06:54:48.129Z,31.04
2019-04-20T06:55:37.925Z,31.33
2019-04-20T06:56:15.366Z,31.33
2019-04-20T06:56:53.914Z,31.22
2019-04-20T06:57:34.446Z,31.13
2019-04-20T06:58:33.057Z,31.13
2019-04-20T06:59:19.470Z,31.04
2019-04-20T06:59:59.444Z,31.13
2019-04-20T07:00:17.868Z,30.94
2019-04-20T07:00:56.217Z,30.94
2019-04-20T07:01:48.267Z,30.55
2019-04-20T07:02:21.656Z,30.86
2019-04-20T07:02:58.804Z,30.86
2019-04-20T07:03:51.129Z,30.76
2019-04-20T07:04:38.210Z,30.57
2019-04-20T07:04:59.183Z,30.57
2019-04-20T07:05:38.887Z,30.47
2019-04-20T07:06:33.724Z,30.47
2019-04-20T07:07:43.024Z,30.76
2019-04-20T07:08:40.478Z,30.39
2019-04-20T07:09:05.983Z,30.29
2019-04-20T07:09:52.341Z,30.29
2019-04-20T07:10:23.960Z,30.2
2019-04-20T07:11:10.406Z,30.2
2019-04-20T07:11:46.072Z,30
2019-04-20T07:12:22.500Z,29.83
2019-04-20T07:12:59.686Z,29.63
2019-04-20T07:13:35.543Z,29.34
2019-04-20T07:14:11.736Z,29.34
2019-04-20T07:14:55.168Z,29.53
2019-04-20T07:15:39.742Z,30.02
2019-04-20T07:16:27.800Z,29.92
2019-04-20T07:17:17.501Z,29.53
2019-04-20T07:17:53.176Z,29.83
2019-04-20T07:18:29.514Z,29.63
2019-04-20T07:19:06.020Z,29.64
2019-04-20T07:19:44.239Z,29.26
2019-04-20T07:20:23.286Z,29.55
2019-04-20T07:21:11.544Z,29.55
2019-04-20T07:22:01.654Z,29.16
2019-04-20T07:22:45.601Z,29.16
2019-04-20T07:23:21.193Z,29.57
2019-04-20T07:23:53.232Z,29.64
2019-04-20T07:24:40.108Z,29.64
2019-04-20T07:25:13.712Z,29.85
2019-04-20T07:25:54.038Z,29.95
2019-04-20T07:26:37.081Z,30.32
2019-04-20T07:27:11.964Z,30.52
2019-04-20T07:27:53.176Z,30.62
2019-04-20T07:28:38.019Z,30.52
2019-04-20T07:29:20.814Z,30.54
2019-04-20T07:29:56.343Z,30.15
2019-04-20T07:30:34.539Z,30.15
2019-04-20T07:31:12.948Z,30.05
2019-04-20T07:31:53.509Z,29.95
2019-04-20T07:32:42.520Z,29.58
2019-04-20T07:33:21.347Z,29.28
2019-04-20T07:33:56.614Z,29.3
2019-04-20T07:34:38.363Z,29.21
2019-04-20T07:35:19.479Z,29.01
2019-04-20T07:35:55.749Z,28.72
2019-04-20T07:36:45.383Z,28.81
2019-04-20T07:38:15.224Z,28.43
2019-04-20T07:38:59.536Z,28.23
2019-04-20T07:39:21.014Z,29.01
2019-04-20T07:40:05.424Z,28.63
2019-04-20T07:40:38.059Z,28.63
2019-04-20T07:41:32.728Z,29.11
2019-04-20T07:42:07.858Z,28.63
2019-04-20T07:42:46.594Z,28.43
2019-04-20T07:43:25.354Z,28.23
2019-04-20T07:44:26.833Z,28.23
2019-04-20T07:44:48.497Z,28.44
2019-04-20T07:45:29.412Z,28.34
2019-04-20T07:46:09.187Z,28.43
2019-04-20T07:47:06.788Z,28.53
2019-04-20T07:47:34.277Z,28.25
2019-04-20T07:48:10.710Z,28.33
2019-04-20T07:48:48.817Z,28.33
2019-04-20T07:49:24.328Z,29.01
2019-04-20T07:50:04.308Z,29.01
2019-04-20T07:50:40.287Z,28.91
2019-04-20T07:51:16.064Z,28.91
2019-04-20T07:51:50.725Z,29.11
2019-04-20T07:52:38.341Z,28.91
2019-04-20T07:53:25.241Z,28.93
2019-04-20T07:54:16.399Z,29.02
2019-04-20T07:55:09.752Z,29.02
2019-04-20T07:55:36.782Z,28.93
2019-04-20T07:56:10.098Z,29.02
2019-04-20T07:56:53.543Z,29.11
2019-04-20T07:57:30.536Z,28.91
2019-04-20T07:58:04.784Z,29.01
2019-04-20T07:58:40.985Z,29.11
2019-04-20T07:59:27.031Z,29.01
2019-04-20T08:00:13.252Z,28.91
2019-04-20T08:01:01.189Z,28.91
2019-04-20T08:01:44.715Z,29.02
2019-04-20T08:02:23.305Z,29.22
2019-04-20T08:03:02.855Z,28.44
2019-04-20T08:03:37.900Z,28.25
2019-04-20T08:04:16.949Z,28.44
2019-04-20T08:04:54.889Z,28.15
2019-04-20T08:05:29.320Z,28.15
2019-04-20T08:06:04.989Z,28.15
2019-04-20T08:06:46.728Z,28.45
2019-04-20T08:07:24.818Z,28.26
2019-04-20T08:08:17.800Z,27.97
2019-04-20T08:08:52.959Z,27.69
2019-04-20T08:09:28.699Z,28.18
2019-04-20T08:10:06.143Z,27.98
2019-04-20T08:10:58.427Z,27.51
2019-04-20T08:11:37.795Z,27.22
2019-04-20T08:12:31.147Z,27.04
2019-04-20T08:13:09.090Z,26.65
2019-04-20T08:13:50.825Z,26.55
2019-04-20T08:15:10.810Z,26.18
2019-04-20T08:16:37.706Z,25.79
2019-04-20T08:17:49.326Z,25.4
2019-04-20T08:18:30.859Z,25.31
2019-04-20T08:19:04.012Z,25.21
2019-04-20T08:19:45.071Z,25.21
2019-04-20T08:20:24.415Z,25.21
2019-04-20T08:21:07.947Z,25.23
2019-04-20T08:22:07.494Z,25.03
2019-04-20T08:22:33.211Z,24.27
2019-04-20T08:23:12.077Z,23.78
2019-04-20T08:23:48.688Z,23.49
2019-04-20T08:24:27.505Z,23.88
2019-04-20T08:25:04.374Z,24.17
2019-04-20T08:25:41.726Z,23.99
2019-04-20T08:26:20.090Z,23.6
2019-04-20T08:26:57.843Z,23.22
2019-04-20T08:27:33.785Z,23.41
2019-04-20T08:28:22.593Z,23.02
2019-04-20T08:29:00.119Z,23.03
2019-04-20T08:29:48.207Z,22.74
2019-04-20T08:30:33.393Z,22.16
2019-04-20T08:31:08.722Z,22.35
2019-04-20T08:31:52.826Z,22.16
2019-04-20T08:32:32.320Z,21.96
2019-04-20T08:33:13.053Z,21.96
2019-04-20T08:34:06.103Z,22.07
2019-04-20T08:34:41.441Z,21.68
2019-04-20T08:35:22.093Z,21.88
2019-04-20T08:36:03.924Z,21.78
2019-04-20T08:36:38.694Z,21.78
2019-04-20T08:37:16.900Z,21.78
2019-04-20T08:38:23.804Z,21.78
2019-04-20T08:39:36.981Z,21.48
2019-04-20T08:40:25.235Z,21.49
2019-04-20T08:40:43.373Z,21.59
2019-04-20T08:41:16.413Z,21.69
2019-04-20T08:42:05.511Z,21.49
2019-04-20T08:42:55.898Z,21.49
2019-04-20T08:43:37.569Z,21.39
2019-04-20T08:44:08.062Z,21.39
2019-04-20T08:45:31.145Z,21.68
2019-04-20T08:46:05.092Z,21.88
2019-04-20T08:46:49.195Z,21.88
2019-04-20T08:47:32.079Z,21.77
2019-04-20T08:48:10.879Z,21.96
2019-04-20T08:48:45.697Z,22.05
2019-04-20T08:49:29.310Z,22.34
2019-04-20T08:50:09.268Z,22.53
2019-04-20T08:50:50.319Z,22.63
2019-04-20T08:51:29.112Z,22.53
2019-04-20T08:52:22.725Z,22.34
2019-04-20T08:53:30.549Z,22.83
2019-04-20T08:54:06.724Z,22.34
2019-04-20T08:54:41.289Z,22.24
2019-04-20T08:55:28.009Z,22.24
2019-04-20T08:56:03.175Z,22.34
2019-04-20T08:56:38.678Z,22.24
2019-04-20T08:57:11.739Z,22.24
2019-04-20T08:57:52.165Z,21.96
2019-04-20T08:58:33.804Z,21.96
2019-04-20T08:59:13.785Z,21.86
2019-04-20T08:59:54.337Z,21.47
2019-04-20T09:00:39.423Z,21.68
2019-04-20T09:01:20.715Z,21.48
2019-04-20T09:01:57.813Z,21.68
2019-04-20T09:02:35.103Z,21.88
2019-04-20T09:03:21.847Z,21.19
2019-04-20T09:04:05.072Z,20.9
2019-04-20T09:04:44.878Z,20.71
2019-04-20T09:05:30.129Z,20.71
2019-04-20T09:06:05.449Z,20.51
2019-04-20T09:06:51.805Z,20.71
2019-04-20T09:07:23.092Z,20.42
2019-04-20T09:08:08.018Z,20.33
2019-04-20T09:08:50.201Z,20.04
2019-04-20T09:09:44.078Z,19.55
2019-04-20T09:10:23.936Z,19.65
2019-04-20T09:10:59.656Z,19.65
2019-04-20T09:11:41.302Z,19.26
2019-04-20T09:12:14.322Z,19.27
2019-04-20T09:12:56.880Z,19.27
2019-04-20T09:13:31.928Z,18.98
2019-04-20T09:14:05.448Z,19.08
2019-04-20T09:14:42.917Z,19.09
2019-04-20T09:15:25.316Z,18.79
2019-04-20T09:16:06.572Z,18.4
2019-04-20T09:16:53.345Z,18.3
2019-04-20T09:17:32.296Z,18.79
2019-04-20T09:18:16.630Z,18.59
2019-04-20T09:18:55.420Z,18.4
2019-04-20T09:19:36.412Z,18.79
2019-04-20T09:20:14.196Z,18.59
2019-04-20T09:20:55.742Z,18.39
2019-04-20T09:21:38.629Z,18.1
2019-04-20T09:22:15.921Z,18.29
2019-04-20T09:23:06.678Z,19.07
2019-04-20T09:23:40.171Z,18.87
2019-04-20T09:24:34.363Z,18.77
2019-04-20T09:25:17.583Z,18.68
2019-04-20T09:26:31.920Z,18.27
2019-04-20T09:27:04.427Z,18.66
2019-04-20T09:27:40.439Z,19.05
2019-04-20T09:28:22.170Z,18.95
2019-04-20T09:29:06.747Z,18.95
2019-04-20T09:30:53.051Z,19.15
2019-04-20T09:31:39.101Z,19.54
2019-04-20T09:32:23.010Z,19.26
2019-04-20T09:33:04.428Z,18.96
2019-04-20T09:33:45.741Z,18.68
2019-04-20T09:34:24.482Z,18.87
2019-04-20T09:35:05.889Z,18.96
2019-04-20T09:35:47.173Z,19.34
2019-04-20T09:36:23.517Z,18.66
2019-04-20T09:37:09.346Z,18.95
2019-04-20T09:37:47.017Z,19.62
2019-04-20T09:38:24.806Z,20.09
2019-04-20T09:38:59.571Z,21.05
2019-04-20T09:39:39.216Z,20.86
2019-04-20T09:40:30.372Z,21.34
2019-04-20T09:41:06.775Z,21.15
2019-04-20T09:41:54.111Z,20.86
2019-04-20T09:42:13.269Z,21.04